Terminal Aerodrome Forecast
Issued by NWS

Home | Current Version | Previous Version | Graphics & Text | Print | Product List | Glossary On
Versions: 1 2 3 4 5 6 7 8 9 10 11 12 13 14
000
FTUS43 KMPX 251347 AAA
TAFAXN
TAF AMD
KAXN 251347Z 2514/2612 09012KT P6SM BKN022 OVC035
     FM251900 09012G18KT P6SM SCT030 OVC050
     FM260400 10006KT P6SM SKC=

USA.gov is the U.S. government's official web portal to all federal, state and local government web resources and services.